Ogden, Arkansas
Current Conditions -  °F | °C
As of 10:53 PM on Sunday 21 Dec 2014 (Local Time) from KTXK Reporting Station
Overcast Overcast  
Wind Chill: 45°   Ceiling: 1600
Heat Index: 48°   Visibility: 9mi
Dew Point: 45°   Wind: 6mph
Humidity: 89%   Direction: 230°SW
Pressure: 29.87"   Gusts: NA
Location:  33.58°N, 94.04°W
Report Text: KTXK 220453Z AUTO 23005KT 9SM BKN016 OVC023 09/07 A2987 RMK AO2 SLP112 T00890072
Loading
Personal Weather Stations






























Interactive Weather Map New forecast layout! Learn more

10-Day Weather Forecast

Advertisements
Track Severe Weather on mobile